Time;durP1;ratioP1;P1;durP2;ratioP2;P2;SDS_P1;SDS_P2;PMS_P1;PMS_P2;Temp;Humidity;BMP_temperature;BMP_pressure;BME280_temperature;BME280_humidity;BME280_pressure;Samples;Min_cycle;Max_cycle;Signal;HPM_P1;HPM_P2
2022/06/20 00:00:04;;;;;;;9.38;4.85;;;;;;;14.06;94.06;100706.47;6045961;28;20018;-67
2022/06/20 00:03:00;;;;;;;8.35;4.90;;;;;;;14.25;94.95;100636.75;6036322;28;20057;-67
2022/06/20 00:05:55;;;;;;;10.40;4.88;;;;;;;14.10;93.34;100626.97;6024692;28;20061;-67
2022/06/20 00:08:51;;;;;;;7.43;4.53;;;;;;;14.41;93.24;100651.88;6033925;28;20084;-67
2022/06/20 00:11:49;;;;;;;10.48;4.80;;;;;;;14.44;94.08;100570.66;6026154;28;20073;-67
2022/06/20 00:14:46;;;;;;;7.38;4.40;;;;;;;14.67;93.47;100582.22;6031926;28;20038;-66
2022/06/20 00:17:41;;;;;;;8.38;5.25;;;;;;;14.16;93.30;100675.09;6025929;28;20026;-67
2022/06/20 00:20:37;;;;;;;8.33;4.57;;;;;;;13.86;95.38;100702.47;6033334;28;20393;-67
2022/06/20 00:23:32;;;;;;;10.93;5.47;;;;;;;13.71;96.20;100717.47;6029630;28;20276;-67
2022/06/20 00:26:28;;;;;;;11.17;5.90;;;;;;;13.45;97.21;100727.44;6025499;28;20060;-66
2022/06/20 00:29:23;;;;;;;12.00;5.70;;;;;;;13.36;97.56;100729.25;6027445;28;20062;-66
2022/06/20 00:32:19;;;;;;;13.27;5.55;;;;;;;13.42;97.90;100707.31;6025025;28;20030;-66
2022/06/20 00:35:14;;;;;;;13.10;6.17;;;;;;;13.29;98.14;100711.44;6025648;28;20486;-66
2022/06/20 00:38:15;;;;;;;10.95;5.60;;;;;;;13.40;98.54;100695.97;6026698;28;20096;-67
2022/06/20 00:41:20;;;;;;;9.10;5.53;;;;;;;13.65;99.05;100644.34;6012036;28;20073;-67
2022/06/20 00:44:24;;;;;;;8.05;4.68;;;;;;;13.54;98.91;100658.00;6051396;28;20030;-67
2022/06/20 00:47:26;;;;;;;8.93;5.07;;;;;;;13.33;98.62;100654.16;6025375;28;20038;-67
2022/06/20 00:50:25;;;;;;;10.13;5.13;;;;;;;13.74;99.04;100626.53;6028614;28;20085;-67
2022/06/20 00:53:27;;;;;;;7.88;5.47;;;;;;;13.95;98.17;100608.16;6025278;28;20046;-67
2022/06/20 00:56:30;;;;;;;9.05;5.05;;;;;;;13.89;96.83;100582.16;6025831;28;20061;-67
2022/06/20 00:59:29;;;;;;;9.38;5.60;;;;;;;13.83;95.88;100574.03;6026935;28;20463;-67
2022/06/20 01:02:32;;;;;;;9.75;5.78;;;;;;;13.82;95.11;100551.88;6023789;28;20466;-67
2022/06/20 01:05:56;;;;;;;9.07;5.57;;;;;;;14.16;95.09;100562.25;6030393;28;20057;-67
2022/06/20 01:08:58;;;;;;;7.07;4.45;;;;;;;13.79;94.04;100546.88;6024320;28;20089;-66
2022/06/20 01:11:56;;;;;;;9.35;5.30;;;;;;;14.11;94.00;100544.09;6030108;28;20073;-67
2022/06/20 01:14:51;;;;;;;8.65;4.78;;;;;;;13.96;93.45;100534.34;6025153;28;20477;-66
2022/06/20 01:17:47;;;;;;;7.67;5.00;;;;;;;14.06;92.79;100514.47;6025541;28;20049;-66
2022/06/20 01:20:44;;;;;;;10.25;5.35;;;;;;;14.23;92.74;100537.41;6030514;28;20034;-67
2022/06/20 01:23:51;;;;;;;6.63;4.32;;;;;;;14.25;93.17;100540.72;6032669;28;20045;-67
2022/06/20 01:27:28;;;;;;;13.50;4.82;;;;;;;13.99;93.29;100550.00;6037691;28;20034;-67
2022/06/20 01:30:33;;;;;;;9.57;5.07;;;;;;;14.24;93.18;100555.06;6035722;28;20128;-67
2022/06/20 01:33:28;;;;;;;10.20;5.63;;;;;;;13.95;92.69;100572.66;6026461;28;20035;-67
2022/06/20 01:39:39;;;;;;;9.75;5.22;;;;;;;13.52;95.34;100585.41;6027795;28;20034;-67
2022/06/20 01:42:35;;;;;;;10.48;4.97;;;;;;;14.12;96.17;100561.78;6036125;28;20041;-67
2022/06/20 01:48:51;;;;;;;7.93;4.72;;;;;;;14.24;94.86;100533.72;6024798;28;20037;-67
2022/06/20 01:51:52;;;;;;;9.57;5.32;;;;;;;13.73;93.85;100555.56;6034457;28;20042;-67
2022/06/20 01:54:51;;;;;;;9.70;5.93;;;;;;;13.38;95.52;100545.28;6029044;28;20058;-67
2022/06/20 01:57:51;;;;;;;10.15;5.43;;;;;;;13.51;96.79;100548.28;6033720;28;20038;-67
2022/06/20 02:00:47;;;;;;;8.75;5.25;;;;;;;13.57;96.43;100545.78;6045833;28;20034;-67
2022/06/20 02:03:44;;;;;;;10.57;5.40;;;;;;;13.49;96.90;100551.13;6030264;28;20045;-67
2022/06/20 02:06:39;;;;;;;9.27;5.68;;;;;;;13.62;96.51;100559.41;6043413;28;20041;-67
2022/06/20 02:09:35;;;;;;;13.93;5.90;;;;;;;13.42;96.87;100562.63;6052924;28;20393;-67
2022/06/20 02:12:32;;;;;;;9.75;6.38;;;;;;;13.33;96.93;100584.91;6027818;28;20034;-67
2022/06/20 02:15:30;;;;;;;10.98;5.85;;;;;;;13.39;97.78;100581.59;6027245;28;20425;-67
2022/06/20 02:18:31;;;;;;;10.30;5.80;;;;;;;13.55;97.65;100560.25;6028688;28;20081;-67
2022/06/20 02:21:29;;;;;;;10.77;5.28;;;;;;;13.75;97.85;100572.22;6033106;28;20041;-67
2022/06/20 02:24:25;;;;;;;10.15;5.63;;;;;;;14.05;97.71;100518.13;6041220;28;20038;-67
2022/06/20 02:27:51;;;;;;;10.07;5.90;;;;;;;13.86;95.25;100486.53;6031493;28;20038;-67
2022/06/20 02:30:46;;;;;;;9.10;5.85;;;;;;;13.62;95.15;100478.63;6026185;28;20413;-67
2022/06/20 02:33:42;;;;;;;11.77;6.03;;;;;;;13.81;95.91;100491.56;6026622;28;20065;-67
2022/06/20 02:36:37;;;;;;;10.85;6.50;;;;;;;13.47;95.98;100507.00;6047120;28;20109;-67
2022/06/20 02:39:35;;;;;;;10.53;6.03;;;;;;;13.19;97.40;100540.31;6028380;28;20044;-67
2022/06/20 02:42:36;;;;;;;11.93;6.43;;;;;;;13.16;98.19;100535.31;6030695;28;20787;-67
2022/06/20 02:45:33;;;;;;;12.30;7.05;;;;;;;13.17;99.47;100532.50;6035806;28;20165;-68
2022/06/20 02:48:30;;;;;;;14.50;7.85;;;;;;;13.38;99.91;100503.50;6027285;28;20092;-67
2022/06/20 02:51:29;;;;;;;14.52;7.47;;;;;;;13.34;100.00;100528.84;6046049;28;20030;-67
2022/06/20 02:54:27;;;;;;;16.17;7.90;;;;;;;13.20;100.00;100542.81;6042510;28;20526;-67
2022/06/20 02:57:32;;;;;;;12.85;7.30;;;;;;;13.20;99.93;100550.81;6027303;28;20037;-67
2022/06/20 03:00:41;;;;;;;15.40;7.40;;;;;;;13.01;99.84;100520.00;6032080;28;20440;-67
2022/06/20 03:03:46;;;;;;;14.70;7.47;;;;;;;12.99;99.75;100514.00;6029703;28;20125;-66
2022/06/20 03:06:48;;;;;;;13.20;7.72;;;;;;;12.83;99.97;100545.09;6036982;28;20030;-67
2022/06/20 03:09:46;;;;;;;14.10;7.40;;;;;;;12.98;100.00;100532.81;6020607;28;20516;-66
2022/06/20 03:12:41;;;;;;;18.00;8.13;;;;;;;12.88;100.00;100532.13;6018669;28;20436;-67
2022/06/20 03:15:37;;;;;;;16.57;8.73;;;;;;;12.72;100.00;100554.22;6026979;28;20034;-66
2022/06/20 03:18:37;;;;;;;20.77;9.32;;;;;;;12.58;100.00;100554.88;6015471;28;20034;-66
2022/06/20 03:21:36;;;;;;;18.25;8.27;;;;;;;12.51;100.00;100575.13;6026892;28;20045;-67
2022/06/20 03:24:32;;;;;;;19.95;8.68;;;;;;;12.51;100.00;100599.06;6035642;28;20038;-66
2022/06/20 03:27:30;;;;;;;19.98;8.88;;;;;;;12.53;100.00;100563.31;6041969;28;20034;-66
2022/06/20 03:30:30;;;;;;;20.40;9.50;;;;;;;12.52;100.00;100606.06;6025871;28;20038;-66
2022/06/20 03:33:26;;;;;;;20.98;8.18;;;;;;;12.42;100.00;100622.13;6031693;28;20070;-66
2022/06/20 03:36:25;;;;;;;18.98;7.63;;;;;;;12.44;100.00;100653.91;6033985;28;20053;-67
2022/06/20 03:39:21;;;;;;;17.20;6.68;;;;;;;12.43;100.00;100660.19;6028811;28;20046;-66
2022/06/20 03:42:16;;;;;;;16.17;6.65;;;;;;;12.43;100.00;100652.22;6026588;28;20113;-67
2022/06/20 03:45:14;;;;;;;13.60;6.32;;;;;;;12.35;100.00;100676.97;6025219;28;20034;-67
2022/06/20 03:48:20;;;;;;;14.13;5.47;;;;;;;12.24;100.00;100702.97;6028013;28;20038;-67
2022/06/20 03:51:19;;;;;;;14.30;5.93;;;;;;;12.22;100.00;100702.31;6025356;28;20057;-69
2022/06/20 03:54:22;;;;;;;12.60;6.00;;;;;;;12.50;100.00;100699.28;6032791;28;20033;-70
2022/06/20 03:57:20;;;;;;;11.95;5.20;;;;;;;12.47;100.00;100738.69;6028102;28;20035;-67
2022/06/20 04:00:24;;;;;;;12.32;5.95;;;;;;;12.28;100.00;100738.91;6030938;28;20390;-66
2022/06/20 04:03:26;;;;;;;12.55;5.65;;;;;;;12.34;100.00;100748.91;6025876;28;20105;-69
2022/06/20 04:06:29;;;;;;;11.82;4.63;;;;;;;12.37;100.00;100749.44;6029259;28;20030;-68
2022/06/20 04:13:05;;;;;;;14.07;5.35;;;;;;;12.31;100.00;100741.25;6037813;28;20035;-69
2022/06/20 04:16:11;;;;;;;10.05;4.90;;;;;;;12.42;100.00;100728.50;6024906;28;20118;-67
2022/06/20 04:19:23;;;;;;;18.83;4.63;;;;;;;12.34;100.00;100709.00;6025740;28;20038;-68
2022/06/20 04:22:24;;;;;;;10.68;4.75;;;;;;;12.47;100.00;100667.69;6040176;28;20065;-67
2022/06/20 04:25:27;;;;;;;11.90;4.57;;;;;;;12.28;100.00;100657.31;6041123;28;20157;-69
2022/06/20 04:28:32;;;;;;;12.65;4.25;;;;;;;12.15;100.00;100635.63;6040892;28;20058;-68
2022/06/20 04:31:51;;;;;;;13.13;4.63;;;;;;;13.08;100.00;100614.19;6025334;28;20105;-67
2022/06/20 04:34:52;;;;;;;8.43;4.07;;;;;;;12.54;100.00;100598.75;6040828;28;20037;-67
2022/06/20 04:37:54;;;;;;;9.43;3.90;;;;;;;12.40;100.00;100594.88;6024824;28;20045;-68
2022/06/20 04:40:56;;;;;;;10.77;4.75;;;;;;;12.06;100.00;100566.66;6026150;28;20129;-68
2022/06/20 04:44:21;;;;;;;12.40;4.78;;;;;;;12.25;100.00;100529.19;6024692;28;20057;-68
2022/06/20 04:47:48;;;;;;;9.48;4.65;;;;;;;12.16;100.00;100508.88;6024057;28;20039;-68
2022/06/20 04:50:47;;;;;;;9.27;4.93;;;;;;;12.25;100.00;100479.50;6025016;28;20153;-66
2022/06/20 04:53:44;;;;;;;10.20;5.13;;;;;;;12.47;100.00;100448.78;6026074;28;20045;-66
2022/06/20 04:56:40;;;;;;;8.57;4.32;;;;;;;12.23;100.00;100446.09;6040850;28;20030;-66
2022/06/20 04:59:36;;;;;;;9.65;4.55;;;;;;;12.15;100.00;100430.94;6028495;28;20030;-67
2022/06/20 05:02:32;;;;;;;9.30;4.13;;;;;;;12.28;100.00;100401.25;6029571;28;20108;-66
2022/06/20 05:05:30;;;;;;;7.87;4.40;;;;;;;12.22;100.00;100391.25;6029205;28;20034;-66
2022/06/20 05:08:34;;;;;;;11.60;4.82;;;;;;;12.23;100.00;100371.66;6045124;28;20027;-65
2022/06/20 05:11:38;;;;;;;11.40;6.10;;;;;;;12.42;100.00;100366.00;6027894;28;20038;-66
2022/06/20 05:15:01;;;;;;;10.27;5.20;;;;;;;12.57;100.00;100351.03;6028287;28;20050;-66
2022/06/20 05:17:57;;;;;;;13.50;4.38;;;;;;;12.20;100.00;100345.41;6045559;28;20046;-66
2022/06/20 05:20:58;;;;;;;9.20;4.35;;;;;;;12.19;100.00;100349.03;6044329;28;20143;-65
2022/06/20 05:24:00;;;;;;;8.50;4.22;;;;;;;12.14;100.00;100362.84;6028080;28;20049;-66
2022/06/20 05:26:56;;;;;;;11.32;5.05;;;;;;;12.25;100.00;100359.03;6029051;28;20027;-65
2022/06/20 05:29:52;;;;;;;10.63;5.18;;;;;;;12.22;100.00;100364.66;6029611;28;20096;-65
2022/06/20 05:32:58;;;;;;;11.15;5.05;;;;;;;12.34;100.00;100389.91;6043454;28;20133;-65
2022/06/20 05:36:00;;;;;;;8.75;4.22;;;;;;;12.36;100.00;100426.00;6035206;28;20117;-65
2022/06/20 05:39:06;;;;;;;10.30;4.93;;;;;;;12.35;100.00;100455.41;6053847;28;20034;-65
2022/06/20 05:42:01;;;;;;;10.02;4.20;;;;;;;12.45;100.00;100491.50;6036347;28;20045;-65
2022/06/20 05:44:57;;;;;;;10.27;3.75;;;;;;;12.54;100.00;100522.44;6023776;28;20393;-65
2022/06/20 05:47:54;;;;;;;14.35;4.43;;;;;;;12.77;100.00;100514.66;6025450;28;20070;-65
2022/06/20 05:50:59;;;;;;;10.20;3.47;;;;;;;13.08;100.00;100513.03;6034047;28;20069;-65
2022/06/20 05:53:58;;;;;;;7.90;3.50;;;;;;;12.98;100.00;100523.00;6028613;28;20503;-65
2022/06/20 05:56:57;;;;;;;11.07;3.95;;;;;;;13.00;100.00;100525.47;6029031;28;20042;-65
2022/06/20 06:00:26;;;;;;;8.10;3.47;;;;;;;13.30;100.00;100542.63;6053237;28;20046;-65
2022/06/20 06:03:44;;;;;;;10.07;3.30;;;;;;;13.65;99.32;100553.75;6016739;28;20046;-65
2022/06/20 06:06:44;;;;;;;7.13;3.00;;;;;;;13.28;98.02;100560.63;6022350;28;20056;-65
2022/06/20 06:09:50;;;;;;;8.02;3.53;;;;;;;13.28;97.61;100584.59;6026995;28;20034;-65
2022/06/20 06:12:50;;;;;;;8.75;3.28;;;;;;;13.40;98.83;100581.41;6039577;28;20125;-65
2022/06/20 06:19:13;;;;;;;11.25;3.50;;;;;;;13.54;96.36;100577.25;6028675;28;20078;-65
2022/06/20 06:22:19;;;;;;;8.07;3.78;;;;;;;13.58;95.32;100567.94;6028674;28;20034;-65
2022/06/20 06:25:19;;;;;;;11.80;4.13;;;;;;;13.35;94.76;100578.44;6026878;28;20077;-65
2022/06/20 06:28:20;;;;;;;6.50;3.08;;;;;;;13.35;95.51;100589.09;6028305;28;20034;-65
2022/06/20 06:31:22;;;;;;;12.80;3.35;;;;;;;13.16;95.80;100600.06;6037637;28;20042;-65
2022/06/20 06:34:24;;;;;;;12.05;2.83;;;;;;;12.94;95.79;100616.63;6026807;28;20524;-65
2022/06/20 06:37:24;;;;;;;7.22;2.92;;;;;;;12.82;96.53;100618.78;6027546;28;20038;-65
2022/06/20 06:40:26;;;;;;;11.63;3.72;;;;;;;12.86;97.99;100661.84;6027273;28;20034;-65
2022/06/20 06:43:38;;;;;;;8.00;3.40;;;;;;;12.75;98.13;100668.31;6043530;28;20092;-66
2022/06/20 06:46:36;;;;;;;10.65;3.15;;;;;;;12.69;98.54;100687.56;6027231;28;20041;-66
2022/06/20 06:49:36;;;;;;;9.27;3.03;;;;;;;12.72;99.47;100684.59;6026219;28;20047;-69
2022/06/20 06:52:37;;;;;;;11.77;3.65;;;;;;;12.49;99.75;100676.38;6041853;28;20437;-69
2022/06/20 06:55:36;;;;;;;8.75;3.20;;;;;;;12.53;100.00;100690.16;6025995;28;20034;-68
2022/06/20 06:58:49;;;;;;;9.55;3.45;;;;;;;12.58;100.00;100689.72;6026764;28;20043;-69
2022/06/20 07:01:50;;;;;;;10.40;3.10;;;;;;;12.39;100.00;100677.50;6026310;28;20482;-68
2022/06/20 07:05:09;;;;;;;8.93;3.10;;;;;;;12.43;100.00;100679.66;6025437;28;20030;-67
2022/06/20 07:08:14;;;;;;;8.63;3.25;;;;;;;12.67;100.00;100678.09;6025381;28;20121;-68
2022/06/20 07:11:20;;;;;;;9.68;3.38;;;;;;;12.60;100.00;100669.09;6026016;28;20034;-66
2022/06/20 07:14:21;;;;;;;7.07;2.95;;;;;;;12.58;100.00;100663.09;6025251;28;20033;-68
2022/06/20 07:17:22;;;;;;;7.32;3.03;;;;;;;12.72;100.00;100660.66;6027290;28;20172;-68
2022/06/20 07:20:21;;;;;;;6.38;2.30;;;;;;;12.52;100.00;100645.97;6025054;28;20049;-66
2022/06/20 07:23:17;;;;;;;9.82;2.92;;;;;;;12.24;100.00;100650.63;6026598;28;20030;-67
2022/06/20 07:26:15;;;;;;;9.80;2.85;;;;;;;12.43;100.00;100633.59;6025881;28;20082;-67
2022/06/20 07:29:18;;;;;;;7.90;2.88;;;;;;;12.50;100.00;100639.97;6042627;28;20125;-66
2022/06/20 07:32:19;;;;;;;9.50;3.42;;;;;;;12.56;100.00;100628.66;6025991;28;20464;-67
2022/06/20 07:35:21;;;;;;;11.43;3.35;;;;;;;12.55;100.00;100616.38;6025319;28;20434;-66
2022/06/20 07:38:31;;;;;;;6.38;3.10;;;;;;;12.77;100.00;100617.63;6041668;28;20034;-64
2022/06/20 07:41:41;;;;;;;17.33;5.05;;;;;;;12.64;100.00;100604.75;6025735;28;20022;-66
2022/06/20 07:44:40;;;;;;;7.22;3.40;;;;;;;12.77;100.00;100605.16;6015013;28;20037;-65
2022/06/20 07:48:04;;;;;;;10.90;3.05;;;;;;;12.65;99.96;100598.44;6026222;28;20169;-64
2022/06/20 07:51:21;;;;;;;10.07;2.58;;;;;;;12.56;100.00;100602.06;6026283;28;20445;-65
2022/06/20 07:54:27;;;;;;;14.63;3.63;;;;;;;12.73;99.81;100609.09;6032341;28;20038;-65
2022/06/20 07:57:35;;;;;;;9.80;2.50;;;;;;;12.87;99.45;100597.84;6026494;28;20474;-65
2022/06/20 08:00:36;;;;;;;14.95;3.08;;;;;;;12.93;99.15;100604.34;6025494;28;20089;-65
2022/06/20 08:03:55;;;;;;;10.02;2.72;;;;;;;12.98;98.46;100604.69;6025298;28;20034;-65
2022/06/20 08:07:20;;;;;;;10.48;3.00;;;;;;;13.13;97.76;100611.88;6024900;28;20491;-65
2022/06/20 08:10:28;;;;;;;8.82;2.38;;;;;;;12.93;96.95;100613.16;6024415;28;20081;-65
2022/06/20 08:13:29;;;;;;;11.38;3.17;;;;;;;13.15;96.84;100625.03;6056753;28;20042;-65
2022/06/20 08:16:28;;;;;;;7.55;3.22;;;;;;;13.12;96.90;100614.72;6036988;28;20030;-66
2022/06/20 08:19:24;;;;;;;10.35;3.78;;;;;;;13.04;96.68;100614.66;6024525;28;20046;-65
2022/06/20 08:22:40;;;;;;;12.75;2.80;;;;;;;12.87;96.45;100637.75;6024143;28;20042;-65
2022/06/20 08:25:40;;;;;;;10.98;2.80;;;;;;;12.99;97.28;100631.13;6026610;28;20124;-65
2022/06/20 08:28:44;;;;;;;;;;;;;;;12.95;96.98;100644.94;6026210;28;20039;-65
2022/06/20 08:31:52;;;;;;;7.85;2.47;;;;;;;12.97;97.09;100645.59;6039551;28;20440;-65
2022/06/20 08:34:52;;;;;;;12.25;3.00;;;;;;;12.89;96.76;100649.06;6029669;28;20034;-65
2022/06/20 08:37:54;;;;;;;10.80;3.65;;;;;;;12.94;96.47;100654.72;6037694;28;20038;-65
2022/06/20 08:40:58;;;;;;;7.97;2.95;;;;;;;13.06;97.20;100658.78;6031275;28;20513;-65
2022/06/20 08:44:01;;;;;;;8.60;2.50;;;;;;;13.08;96.60;100650.63;6034865;28;20042;-65
2022/06/20 08:47:23;;;;;;;7.65;2.65;;;;;;;13.05;96.13;100667.75;6026741;28;20042;-65
2022/06/20 08:50:56;;;;;;;6.75;2.55;;;;;;;13.22;96.57;100673.97;6042560;28;20082;-65
2022/06/20 08:54:09;;;;;;;8.65;2.78;;;;;;;13.26;96.00;100682.47;6026986;28;20045;-65
2022/06/20 08:57:12;;;;;;;10.65;3.05;;;;;;;13.52;96.10;100691.16;6033814;28;20069;-65
2022/06/20 09:00:17;;;;;;;10.48;3.13;;;;;;;13.65;95.13;100689.66;6028430;28;20038;-65
2022/06/20 09:03:40;;;;;;;11.85;2.83;;;;;;;13.96;95.54;100689.81;6030885;28;20030;-65
2022/06/20 09:06:56;;;;;;;6.82;3.10;;;;;;;14.13;92.88;100696.78;6039528;28;20034;-65
2022/06/20 09:10:04;;;;;;;9.25;2.33;;;;;;;14.34;90.75;100696.28;6042491;28;20470;-65
2022/06/20 09:13:36;;;;;;;6.43;2.22;;;;;;;14.43;89.96;100694.44;6032380;28;20093;-65
2022/06/20 09:17:11;;;;;;;10.43;2.90;;;;;;;14.63;90.01;100677.84;6028178;28;20079;-65
2022/06/20 09:20:18;;;;;;;5.55;1.83;;;;;;;14.64;88.22;100679.50;5986297;28;20062;-65
2022/06/20 09:23:28;;;;;;;8.60;1.92;;;;;;;14.73;88.76;100667.78;5980332;28;20494;-65
2022/06/20 09:26:45;;;;;;;7.30;2.65;;;;;;;14.85;87.55;100673.56;6026664;28;20038;-65
2022/06/20 09:29:54;;;;;;;8.05;1.90;;;;;;;15.53;85.11;100670.16;6028749;28;20513;-65
2022/06/20 09:33:09;;;;;;;6.78;2.08;;;;;;;15.75;81.17;100675.50;6027071;28;20061;-65
2022/06/20 09:36:26;;;;;;;9.73;2.40;;;;;;;15.73;82.81;100671.34;6044192;28;20054;-65
2022/06/20 09:39:35;;;;;;;5.95;2.38;;;;;;;15.75;82.51;100672.81;6029080;28;20041;-65
2022/06/20 09:42:50;;;;;;;7.07;2.60;;;;;;;15.83;81.08;100656.69;6042979;28;20062;-65
2022/06/20 09:45:56;;;;;;;7.15;2.40;;;;;;;15.96;79.60;100669.44;6027274;28;20034;-65
2022/06/20 09:49:12;;;;;;;7.10;3.38;;;;;;;16.23;79.31;100674.19;6028518;28;20066;-66
2022/06/20 09:52:20;;;;;;;12.20;2.45;;;;;;;16.27;79.03;100670.13;6043675;28;20046;-65
2022/06/20 09:55:19;;;;;;;9.10;2.53;;;;;;;16.35;78.45;100669.22;6028637;28;20113;-65
2022/06/20 09:58:22;;;;;;;11.45;2.90;;;;;;;16.52;78.62;100671.50;6041578;28;20038;-65
2022/06/20 10:01:36;;;;;;;14.27;3.08;;;;;;;16.57;79.17;100671.00;6034608;28;20487;-66
2022/06/20 10:04:40;;;;;;;8.95;2.75;;;;;;;16.89;77.06;100669.75;6026893;28;20470;-66
2022/06/20 10:07:42;;;;;;;8.02;2.75;;;;;;;17.27;74.38;100661.31;6043520;28;20058;-66
2022/06/20 10:11:10;;;;;;;6.63;2.67;;;;;;;17.23;74.02;100660.03;6027871;28;20026;-65
2022/06/20 10:14:33;;;;;;;7.45;2.90;;;;;;;17.84;74.19;100652.38;6027970;28;20575;-66
2022/06/20 10:17:52;;;;;;;6.07;2.58;;;;;;;17.84;69.78;100649.69;6017636;28;20073;-66
2022/06/20 10:20:56;;;;;;;9.43;2.58;;;;;;;18.46;68.37;100660.44;6026217;28;20553;-65
2022/06/20 10:24:16;;;;;;;6.95;2.17;;;;;;;18.47;65.78;100659.41;6026918;28;20117;-65
2022/06/20 10:27:36;;;;;;;6.72;2.25;;;;;;;18.30;69.74;100658.06;6046808;28;20417;-66
2022/06/20 10:30:52;;;;;;;8.60;2.10;;;;;;;18.27;69.90;100655.78;6044966;28;20045;-65
2022/06/20 10:34:05;;;;;;;6.18;1.60;;;;;;;18.36;67.29;100662.66;6027402;28;20036;-66
2022/06/20 10:37:09;;;;;;;6.68;1.80;;;;;;;17.93;68.77;100666.47;6030185;28;20049;-65
2022/06/20 10:40:17;;;;;;;7.05;1.80;;;;;;;18.62;68.25;100649.38;6036709;28;20038;-65
2022/06/20 10:43:21;;;;;;;8.88;1.95;;;;;;;18.72;64.21;100660.59;6028529;28;20065;-65
2022/06/20 10:46:37;;;;;;;5.32;1.70;;;;;;;19.00;63.25;100665.84;6038934;28;20035;-66
2022/06/20 10:49:44;;;;;;;8.60;2.00;;;;;;;18.97;63.28;100679.69;6017956;28;20046;-65
2022/06/20 10:53:04;;;;;;;6.45;1.60;;;;;;;19.40;63.59;100680.28;6014757;28;20058;-65
2022/06/20 10:56:30;;;;;;;8.15;2.15;;;;;;;19.61;60.91;100674.72;6037529;28;20049;-66
2022/06/20 10:59:51;;;;;;;5.97;1.80;;;;;;;19.00;59.79;100701.63;6029692;28;20038;-66
2022/06/20 11:03:17;;;;;;;3.40;1.65;;;;;;;18.91;60.11;100672.47;6050499;28;20026;-66
2022/06/20 11:06:36;;;;;;;5.53;1.40;;;;;;;18.78;63.18;100662.47;6049629;28;20054;-66
2022/06/20 11:09:44;;;;;;;6.45;1.70;;;;;;;18.91;62.49;100688.59;6027807;28;20045;-65
2022/06/20 11:13:17;;;;;;;8.30;1.85;;;;;;;18.38;62.24;100695.50;6050551;28;20113;-66
2022/06/20 11:16:37;;;;;;;9.88;2.13;;;;;;;18.59;64.75;100684.69;6042651;28;20462;-66
2022/06/20 11:19:59;;;;;;;5.90;1.80;;;;;;;18.57;62.04;100692.13;6028662;28;20457;-66
2022/06/20 11:23:00;;;;;;;7.75;1.77;;;;;;;18.73;61.36;100683.75;6022972;28;20030;-65
2022/06/20 11:26:16;;;;;;;7.10;1.95;;;;;;;18.57;62.29;100684.06;6030465;28;20034;-66
2022/06/20 11:29:40;;;;;;;7.80;1.95;;;;;;;18.33;63.89;100687.22;6032074;28;20043;-66
2022/06/20 11:33:01;;;;;;;7.82;1.80;;;;;;;18.79;61.67;100682.94;6026778;28;20416;-66
2022/06/20 11:36:11;;;;;;;5.53;1.60;;;;;;;18.99;60.64;100677.66;6025905;28;20057;-66
2022/06/20 11:39:09;;;;;;;3.85;1.60;;;;;;;19.31;57.75;100676.91;6026496;28;20126;-66
2022/06/20 11:42:49;;;;;;;2.90;1.20;;;;;;;18.92;58.19;100677.63;6031259;28;20031;-65
2022/06/20 11:45:53;;;;;;;3.70;1.60;;;;;;;18.86;58.11;100673.03;6026041;28;20056;-65
2022/06/20 11:49:20;;;;;;;3.15;1.38;;;;;;;18.88;58.30;100665.63;6034497;28;20035;-66
2022/06/20 11:52:28;;;;;;;3.78;1.58;;;;;;;18.59;58.10;100665.91;6040690;28;20038;-66
2022/06/20 11:55:39;;;;;;;3.45;2.00;;;;;;;18.23;58.77;100659.88;6041009;28;20470;-66
2022/06/20 11:58:54;;;;;;;2.28;1.20;;;;;;;18.09;59.15;100669.72;6024501;28;20038;-66
2022/06/20 12:01:55;;;;;;;5.05;1.50;;;;;;;18.15;58.66;100668.09;6037017;28;20034;-66
2022/06/20 12:04:56;;;;;;;3.33;1.40;;;;;;;18.62;58.00;100664.66;6032389;28;20061;-66
2022/06/20 12:08:15;;;;;;;5.00;1.33;;;;;;;19.30;55.18;100653.75;6058309;28;20044;-66
2022/06/20 12:11:37;;;;;;;6.53;1.40;;;;;;;20.12;53.29;100637.22;6020484;28;20055;-66
2022/06/20 12:14:48;;;;;;;4.38;1.13;;;;;;;20.07;49.06;100648.63;6024824;28;20113;-66
2022/06/20 12:17:57;;;;;;;4.38;1.48;;;;;;;19.91;48.86;100656.31;6026037;28;20470;-66
2022/06/20 12:24:10;;;;;;;3.95;1.92;;;;;;;20.32;47.83;100648.81;6026007;28;20042;-66
2022/06/20 12:27:11;;;;;;;3.83;1.00;;;;;;;20.40;47.13;100651.28;6029580;28;20494;-66
2022/06/20 12:30:12;;;;;;;4.90;1.45;;;;;;;20.70;47.56;100649.75;6024163;28;20041;-66
2022/06/20 12:33:09;;;;;;;3.63;1.00;;;;;;;21.15;45.52;100666.75;6025863;28;20418;-66
2022/06/20 12:36:15;;;;;;;4.60;1.30;;;;;;;21.32;44.77;100654.44;6024260;28;20394;-66
2022/06/20 12:39:31;;;;;;;4.85;1.33;;;;;;;21.61;43.18;100658.38;6025720;28;20046;-66
2022/06/20 12:42:48;;;;;;;6.78;1.65;;;;;;;20.83;45.01;100664.19;6017849;28;20031;-66
2022/06/20 12:46:03;;;;;;;3.97;1.25;;;;;;;20.23;46.78;100670.75;6023073;28;20030;-66
2022/06/20 12:49:19;;;;;;;6.15;1.42;;;;;;;19.65;48.45;100667.88;6023329;28;20035;-66
2022/06/20 12:52:52;;;;;;;3.10;1.35;;;;;;;19.24;49.03;100675.25;6023749;28;20038;-66
2022/06/20 12:55:54;;;;;;;4.25;1.17;;;;;;;18.79;48.59;100658.75;5992469;28;20046;-66
2022/06/20 12:59:18;;;;;;;3.65;1.63;;;;;;;19.16;49.98;100662.81;6019638;28;20070;-66
2022/06/20 13:02:40;;;;;;;3.60;1.42;;;;;;;20.21;48.30;100668.28;6029595;28;20397;-66
2022/06/20 13:06:06;;;;;;;5.05;1.50;;;;;;;20.42;47.46;100657.28;6034068;28;20033;-66
2022/06/20 13:09:10;;;;;;;6.15;1.38;;;;;;;20.13;45.50;100657.75;6027536;28;20080;-66
2022/06/20 13:12:17;;;;;;;3.17;1.48;;;;;;;19.94;49.04;100659.41;6038898;28;20037;-66
2022/06/20 13:15:21;;;;;;;8.27;1.52;;;;;;;19.50;48.57;100661.88;6026875;28;20038;-66
2022/06/20 13:18:41;;;;;;;5.30;1.50;;;;;;;19.23;50.41;100652.91;6036104;28;20061;-66
2022/06/20 13:21:49;;;;;;;3.78;1.67;;;;;;;19.62;50.60;100651.34;6034820;28;20038;-66
2022/06/20 13:24:59;;;;;;;7.00;1.73;;;;;;;20.39;49.64;100643.41;6028273;28;20068;-66
2022/06/20 13:28:08;;;;;;;5.28;1.80;;;;;;;20.82;48.77;100641.78;6029184;28;20046;-66
2022/06/20 13:31:13;;;;;;;5.30;1.50;;;;;;;21.82;46.20;100638.28;6035546;28;20041;-67
2022/06/20 13:34:56;;;;;;;5.90;1.38;;;;;;;21.97;45.60;100633.38;6026080;28;20126;-66
2022/06/20 13:37:57;;;;;;;5.32;1.70;;;;;;;20.88;44.75;100643.63;5956369;29;20043;-66
2022/06/20 13:41:05;;;;;;;4.40;1.70;;;;;;;20.02;46.40;100648.44;5955765;29;20054;-66
2022/06/20 13:44:38;;;;;;;6.55;1.85;;;;;;;19.59;48.77;100652.59;6027762;28;20069;-66
2022/06/20 13:47:44;;;;;;;3.97;1.67;;;;;;;19.39;50.27;100657.09;6028212;28;20121;-66
2022/06/20 13:50:49;;;;;;;5.63;1.60;;;;;;;19.50;50.77;100662.72;6040601;28;20041;-66
2022/06/20 13:53:58;;;;;;;6.45;1.75;;;;;;;20.07;48.11;100656.72;6027679;28;20092;-66
2022/06/20 13:57:07;;;;;;;4.57;1.55;;;;;;;20.51;47.59;100647.13;6028718;28;20393;-66
2022/06/20 14:00:18;;;;;;;4.35;1.90;;;;;;;19.96;45.53;100657.34;6028569;28;20054;-66
2022/06/20 14:03:18;;;;;;;5.00;2.00;;;;;;;19.51;48.19;100661.66;6027421;28;20378;-66
2022/06/20 14:06:20;;;;;;;7.32;2.15;;;;;;;19.07;50.09;100672.09;6024292;28;20410;-66
2022/06/20 14:09:20;;;;;;;3.63;1.60;;;;;;;18.71;49.69;100674.22;6028344;28;20121;-66
2022/06/20 14:12:28;;;;;;;4.32;1.60;;;;;;;18.67;50.76;100673.78;6028065;28;20445;-66
2022/06/20 14:15:27;;;;;;;5.68;2.08;;;;;;;19.17;50.27;100669.00;6026950;28;20035;-66
2022/06/20 14:18:28;;;;;;;6.60;1.85;;;;;;;19.95;49.01;100657.53;6028189;28;20049;-66
2022/06/20 14:21:32;;;;;;;5.50;1.80;;;;;;;21.10;46.34;100661.19;6023582;28;20478;-66
2022/06/20 14:24:30;;;;;;;6.00;1.85;;;;;;;21.08;45.78;100660.59;6027940;28;20035;-66
2022/06/20 14:27:29;;;;;;;9.63;2.20;;;;;;;20.77;47.20;100664.00;6026982;28;20413;-66
2022/06/20 14:30:30;;;;;;;5.05;1.90;;;;;;;20.39;47.98;100671.19;6025359;28;20045;-66
2022/06/20 14:33:31;;;;;;;4.10;2.00;;;;;;;20.09;48.38;100665.41;6026992;28;20034;-66